首页
METAR-TAF:

METAR-TAF

机场 :

Mackall Army Airfield

Camp Mackall, 北卡罗来纳州, 美国

纬度: 35-02N, 经度: 079-30W, 海拔: 115米

当前天气观测

该预报发布于15分钟前的23:21 UTC
风速6节,风向北转东北
温度 5°C
湿度 81%
气压 1026 hPa
能見度: 9.7公里
阴天层高于2200英尺

METAR: KHFF 142321Z AUTO 03006KT 6SM HZ OVC022 05/02 A3029 RMK AO2 DZE17DZB18E18DZB19E20 SLP276 PWINO $

时间: 18:36 (23:36 UTC)


TAF: 丢失

超过4000个机场的气象观测和天气预报(METAR&TAF报告)。

可查询的气象台以黄色和红色小点在地图上表示。

将鼠标移到小点上方,可查看气象台名称。

然后点击查看天气观测和预报。

如需切换地图:点击带黑十字的绿色按钮放大地图;点击带横线的绿色按钮缩小地图;或者点击绿色箭头查看邻近地区的地图。


METAR-TAF: